OPRN

Benazir Bhutto International Airport

Islamabad, Pakistan
TAF OPRN 182130Z 1900/2006 32006KT 2500 BR FEW040 BKN100 OVC180 TEMPO 1900/1906 1500 -RA SCT040 OVC080 OVC180 TEMPO 1920/2006 1500 -RA SCT040 OVC080
Issued Valid From Valid To
Jan-18 @ 21:30 UTC
(5 hours ago)
Jan-19 @ 00:00 UTC
(2 hours ago)
Jan-20 @ 06:00 UTC
(-1 days ago)
Jan-19 @ 00:00 to Jan-20 @ 06:00
TAF OPRN 182130Z 1900/2006 32006KT 2500 BR FEW040 BKN100 OVC180
Wind Visibility Clouds Conditions
320° at 6 knots 2,494 meters
  • Few at 4,000' AGL
  • Broken at 10,000' AGL
  • Overcast at 18,000' AGL
  • Mist
Temporary Jan-19 @ 00:00 to Jan-19 @ 06:00
TEMPO 1900/1906 1500 -RA SCT040 OVC080 OVC180
Visibility Clouds Conditions
1,497 meters
  • Scattered at 4,000' AGL
  • Overcast at 8,000' AGL
  • Overcast at 18,000' AGL
  • Light Rain
Temporary Jan-19 @ 20:00 to Jan-20 @ 06:00
TEMPO 1920/2006 1500 -RA SCT040 OVC080
Visibility Clouds Conditions
1,497 meters
  • Scattered at 4,000' AGL
  • Overcast at 8,000' AGL
  • Light Rain
TAF OPRN 182130Z 1900/2006 32006KT 2500 BR FEW040 BKN100 OVC180 TEMPO 1900/1906 1500 -RA SCT040 OVC080 OVC180 TEMPO 1920/2006 1500 -RA SCT040 OVC080
Issued Jan-18 @ 21:30 UTC
(5 hours ago)
Valid From Jan-19 @ 00:00 UTC
(2 hours ago)
Valid To Jan-20 @ 06:00 UTC
(-1 days ago)
Jan-19 @ 00:00 - Jan-20 @ 06:00
Wind Visibility
320° at 6 knots 2,494 meters
Clouds
  • Few at 4,000' AGL
  • Broken at 10,000' AGL
  • Overcast at 18,000' AGL
Conditions
  • Mist
Temporary Jan-19 @ 00:00 - Jan-19 @ 06:00
Clouds
  • Scattered at 4,000' AGL
  • Overcast at 8,000' AGL
  • Overcast at 18,000' AGL
Conditions
  • Light Rain
Temporary Jan-19 @ 20:00 - Jan-20 @ 06:00
Clouds
  • Scattered at 4,000' AGL
  • Overcast at 8,000' AGL
Conditions
  • Light Rain